sensor_id;sensor_type;location;lat;lon;timestamp;pressure;altitude;pressure_sealevel;temperature;humidity
84049;BME280;74136;51.684;7.862;2024-01-30T00:00:01;102104.53;;;2.34;89.68
84049;BME280;74136;51.684;7.862;2024-01-30T00:02:27;102096.84;;;2.30;89.67
84049;BME280;74136;51.684;7.862;2024-01-30T00:04:54;102115.41;;;2.34;89.18
84049;BME280;74136;51.684;7.862;2024-01-30T00:07:20;102104.28;;;2.28;89.94
84049;BME280;74136;51.684;7.862;2024-01-30T00:09:47;102107.13;;;2.26;89.46
84049;BME280;74136;51.684;7.862;2024-01-30T00:12:14;102105.69;;;2.22;89.93
84049;BME280;74136;51.684;7.862;2024-01-30T00:14:43;102108.00;;;2.17;89.77
84049;BME280;74136;51.684;7.862;2024-01-30T00:17:09;102112.72;;;2.15;89.96
84049;BME280;74136;51.684;7.862;2024-01-30T00:19:35;102107.72;;;2.10;90.05
84049;BME280;74136;51.684;7.862;2024-01-30T00:22:02;102106.31;;;2.06;89.25
84049;BME280;74136;51.684;7.862;2024-01-30T00:24:28;102108.16;;;2.06;89.59
84049;BME280;74136;51.684;7.862;2024-01-30T00:26:54;102105.88;;;2.01;90.14
84049;BME280;74136;51.684;7.862;2024-01-30T00:29:20;102111.88;;;2.05;90.44
84049;BME280;74136;51.684;7.862;2024-01-30T00:31:50;102109.75;;;2.08;90.88
84049;BME280;74136;51.684;7.862;2024-01-30T00:34:16;102098.72;;;2.10;90.98
84049;BME280;74136;51.684;7.862;2024-01-30T00:36:42;102104.69;;;2.23;91.50
84049;BME280;74136;51.684;7.862;2024-01-30T00:39:08;102106.84;;;2.29;91.35
84049;BME280;74136;51.684;7.862;2024-01-30T00:41:35;102091.97;;;2.24;91.68
84049;BME280;74136;51.684;7.862;2024-01-30T00:44:01;102100.28;;;2.22;91.48
84049;BME280;74136;51.684;7.862;2024-01-30T00:46:27;102101.44;;;2.19;91.24
84049;BME280;74136;51.684;7.862;2024-01-30T00:48:53;102088.03;;;2.08;91.11
84049;BME280;74136;51.684;7.862;2024-01-30T00:51:20;102096.31;;;2.07;91.37
84049;BME280;74136;51.684;7.862;2024-01-30T00:53:46;102100.16;;;2.14;91.96
84049;BME280;74136;51.684;7.862;2024-01-30T00:56:12;102100.13;;;2.24;92.17
84049;BME280;74136;51.684;7.862;2024-01-30T00:58:38;102093.38;;;2.37;92.68
84049;BME280;74136;51.684;7.862;2024-01-30T01:01:05;102090.94;;;2.44;92.23
84049;BME280;74136;51.684;7.862;2024-01-30T01:03:33;102093.22;;;2.48;92.59
84049;BME280;74136;51.684;7.862;2024-01-30T01:05:59;102090.50;;;2.48;91.99
84049;BME280;74136;51.684;7.862;2024-01-30T01:08:26;102090.63;;;2.47;92.27
84049;BME280;74136;51.684;7.862;2024-01-30T01:10:53;102085.34;;;2.45;92.63
84049;BME280;74136;51.684;7.862;2024-01-30T01:13:19;102095.06;;;2.48;92.05
84049;BME280;74136;51.684;7.862;2024-01-30T01:15:46;102100.66;;;2.46;92.71
84049;BME280;74136;51.684;7.862;2024-01-30T01:18:12;102082.78;;;2.44;92.22
84049;BME280;74136;51.684;7.862;2024-01-30T01:20:38;102100.66;;;2.46;92.45
84049;BME280;74136;51.684;7.862;2024-01-30T01:23:04;102087.91;;;2.47;92.80
84049;BME280;74136;51.684;7.862;2024-01-30T01:25:31;102086.50;;;2.52;92.70
84049;BME280;74136;51.684;7.862;2024-01-30T01:27:57;102076.91;;;2.48;92.88
84049;BME280;74136;51.684;7.862;2024-01-30T01:30:23;102084.47;;;2.54;92.65
84049;BME280;74136;51.684;7.862;2024-01-30T01:32:51;102074.16;;;2.58;93.19
84049;BME280;74136;51.684;7.862;2024-01-30T01:35:22;102082.88;;;2.62;92.98
84049;BME280;74136;51.684;7.862;2024-01-30T01:37:51;102077.72;;;2.59;92.78
84049;BME280;74136;51.684;7.862;2024-01-30T01:40:28;102082.16;;;2.60;92.62
84049;BME280;74136;51.684;7.862;2024-01-30T01:42:55;102084.59;;;2.63;92.34
84049;BME280;74136;51.684;7.862;2024-01-30T01:45:21;102080.31;;;2.60;92.84
84049;BME280;74136;51.684;7.862;2024-01-30T01:47:51;102071.44;;;2.58;92.46
84049;BME280;74136;51.684;7.862;2024-01-30T01:50:20;102081.44;;;2.58;92.48
84049;BME280;74136;51.684;7.862;2024-01-30T01:52:48;102080.03;;;2.63;92.80
84049;BME280;74136;51.684;7.862;2024-01-30T01:55:15;102080.69;;;2.65;92.73
84049;BME280;74136;51.684;7.862;2024-01-30T01:57:42;102073.59;;;2.64;93.11
84049;BME280;74136;51.684;7.862;2024-01-30T02:00:09;102076.69;;;2.69;93.42
84049;BME280;74136;51.684;7.862;2024-01-30T02:02:36;102070.53;;;2.67;93.16
84049;BME280;74136;51.684;7.862;2024-01-30T02:05:03;102078.69;;;2.67;91.98
84049;BME280;74136;51.684;7.862;2024-01-30T02:07:30;102072.00;;;2.62;92.04
84049;BME280;74136;51.684;7.862;2024-01-30T02:09:56;102080.75;;;2.55;91.85
84049;BME280;74136;51.684;7.862;2024-01-30T02:12:23;102070.06;;;2.44;91.95
84049;BME280;74136;51.684;7.862;2024-01-30T02:14:50;102065.50;;;2.35;91.53
84049;BME280;74136;51.684;7.862;2024-01-30T02:17:16;102059.81;;;2.29;91.63
84049;BME280;74136;51.684;7.862;2024-01-30T02:19:43;102064.41;;;2.28;91.62
84049;BME280;74136;51.684;7.862;2024-01-30T02:22:09;102043.81;;;2.26;91.94
84049;BME280;74136;51.684;7.862;2024-01-30T02:24:35;102062.41;;;2.30;91.82
84049;BME280;74136;51.684;7.862;2024-01-30T02:27:01;102055.09;;;2.21;90.94
84049;BME280;74136;51.684;7.862;2024-01-30T02:29:28;102050.53;;;2.22;91.82
84049;BME280;74136;51.684;7.862;2024-01-30T02:31:54;102059.00;;;2.18;92.20
84049;BME280;74136;51.684;7.862;2024-01-30T02:34:20;102046.69;;;2.14;91.81
84049;BME280;74136;51.684;7.862;2024-01-30T02:36:47;102053.41;;;2.10;91.30
84049;BME280;74136;51.684;7.862;2024-01-30T02:39:13;102041.00;;;2.08;91.75
84049;BME280;74136;51.684;7.862;2024-01-30T02:41:39;102041.13;;;2.16;92.19
84049;BME280;74136;51.684;7.862;2024-01-30T02:44:06;102046.28;;;2.19;92.74
84049;BME280;74136;51.684;7.862;2024-01-30T02:46:32;102042.56;;;2.20;92.95
84049;BME280;74136;51.684;7.862;2024-01-30T02:48:58;102040.53;;;2.22;92.41
84049;BME280;74136;51.684;7.862;2024-01-30T02:51:24;102031.50;;;2.22;92.63
84049;BME280;74136;51.684;7.862;2024-01-30T02:53:50;102034.81;;;2.25;93.09
84049;BME280;74136;51.684;7.862;2024-01-30T02:56:17;102035.66;;;2.26;92.39
84049;BME280;74136;51.684;7.862;2024-01-30T02:58:43;102032.22;;;2.24;92.37
84049;BME280;74136;51.684;7.862;2024-01-30T03:01:09;102026.66;;;2.25;92.79
84049;BME280;74136;51.684;7.862;2024-01-30T03:03:35;102015.66;;;2.27;93.09
84049;BME280;74136;51.684;7.862;2024-01-30T03:06:02;102016.91;;;2.32;92.89
84049;BME280;74136;51.684;7.862;2024-01-30T03:08:28;102022.50;;;2.31;92.91
84049;BME280;74136;51.684;7.862;2024-01-30T03:10:54;102018.94;;;2.30;92.83
84049;BME280;74136;51.684;7.862;2024-01-30T03:13:21;102019.06;;;2.29;92.81
84049;BME280;74136;51.684;7.862;2024-01-30T03:15:49;102018.22;;;2.28;92.44
84049;BME280;74136;51.684;7.862;2024-01-30T03:18:15;102013.50;;;2.30;92.30
84049;BME280;74136;51.684;7.862;2024-01-30T03:20:41;102013.19;;;2.33;92.85
84049;BME280;74136;51.684;7.862;2024-01-30T03:23:08;102002.31;;;2.33;93.26
84049;BME280;74136;51.684;7.862;2024-01-30T03:25:34;102008.03;;;2.40;93.11
84049;BME280;74136;51.684;7.862;2024-01-30T03:28:00;102006.88;;;2.42;93.05
84049;BME280;74136;51.684;7.862;2024-01-30T03:30:26;102002.84;;;2.46;92.45
84049;BME280;74136;51.684;7.862;2024-01-30T03:32:52;101995.16;;;2.42;92.99
84049;BME280;74136;51.684;7.862;2024-01-30T03:35:19;101986.59;;;2.37;92.58
84049;BME280;74136;51.684;7.862;2024-01-30T03:37:45;101989.31;;;2.37;92.66
84049;BME280;74136;51.684;7.862;2024-01-30T03:40:12;101989.00;;;2.40;92.29
84049;BME280;74136;51.684;7.862;2024-01-30T03:42:38;101983.59;;;2.40;92.72
84049;BME280;74136;51.684;7.862;2024-01-30T03:45:04;101982.97;;;2.46;93.38
84049;BME280;74136;51.684;7.862;2024-01-30T03:47:31;101991.94;;;2.56;92.95
84049;BME280;74136;51.684;7.862;2024-01-30T03:49:57;101984.91;;;2.63;92.62
84049;BME280;74136;51.684;7.862;2024-01-30T03:52:23;101976.13;;;2.69;92.86
84049;BME280;74136;51.684;7.862;2024-01-30T03:54:49;101973.81;;;2.74;93.53
84049;BME280;74136;51.684;7.862;2024-01-30T03:57:16;101977.50;;;2.83;93.46
84049;BME280;74136;51.684;7.862;2024-01-30T03:59:44;101973.00;;;2.91;92.72
84049;BME280;74136;51.684;7.862;2024-01-30T04:02:11;101979.84;;;2.96;93.18
84049;BME280;74136;51.684;7.862;2024-01-30T04:04:38;101980.00;;;2.94;93.21
84049;BME280;74136;51.684;7.862;2024-01-30T04:07:04;101969.72;;;2.88;92.96
84049;BME280;74136;51.684;7.862;2024-01-30T04:09:30;101967.31;;;2.85;92.50
84049;BME280;74136;51.684;7.862;2024-01-30T04:11:56;101966.84;;;2.89;93.45
84049;BME280;74136;51.684;7.862;2024-01-30T04:14:22;101966.97;;;2.98;93.56
84049;BME280;74136;51.684;7.862;2024-01-30T04:16:49;101955.31;;;3.05;94.00
84049;BME280;74136;51.684;7.862;2024-01-30T04:19:15;101970.22;;;3.19;94.41
84049;BME280;74136;51.684;7.862;2024-01-30T04:21:41;101971.31;;;3.26;94.59
84049;BME280;74136;51.684;7.862;2024-01-30T04:24:07;101967.50;;;3.37;94.16
84049;BME280;74136;51.684;7.862;2024-01-30T04:26:33;101960.97;;;3.47;94.92
84049;BME280;74136;51.684;7.862;2024-01-30T04:29:01;101965.59;;;3.55;94.71
84049;BME280;74136;51.684;7.862;2024-01-30T04:31:27;101966.88;;;3.60;94.58
84049;BME280;74136;51.684;7.862;2024-01-30T04:33:53;101959.75;;;3.67;94.20
84049;BME280;74136;51.684;7.862;2024-01-30T04:36:19;101961.31;;;3.70;94.85
84049;BME280;74136;51.684;7.862;2024-01-30T04:38:46;101957.59;;;3.71;94.39
84049;BME280;74136;51.684;7.862;2024-01-30T04:41:12;101959.44;;;3.71;94.04
84049;BME280;74136;51.684;7.862;2024-01-30T04:43:38;101966.56;;;3.63;93.64
84049;BME280;74136;51.684;7.862;2024-01-30T04:46:04;101962.59;;;3.58;93.25
84049;BME280;74136;51.684;7.862;2024-01-30T04:48:31;101961.66;;;3.49;93.32
84049;BME280;74136;51.684;7.862;2024-01-30T04:50:58;101964.09;;;3.52;93.07
84049;BME280;74136;51.684;7.862;2024-01-30T04:53:24;101961.97;;;3.64;93.52
84049;BME280;74136;51.684;7.862;2024-01-30T04:55:50;101957.84;;;3.60;93.52
84049;BME280;74136;51.684;7.862;2024-01-30T04:58:16;101952.00;;;3.55;93.45
84049;BME280;74136;51.684;7.862;2024-01-30T05:00:43;101967.88;;;3.59;93.00
84049;BME280;74136;51.684;7.862;2024-01-30T05:03:09;101966.00;;;3.60;93.24
84049;BME280;74136;51.684;7.862;2024-01-30T05:05:35;101955.28;;;3.58;92.67
84049;BME280;74136;51.684;7.862;2024-01-30T05:08:03;101951.00;;;3.56;93.61
84049;BME280;74136;51.684;7.862;2024-01-30T05:10:29;101946.94;;;3.60;93.43
84049;BME280;74136;51.684;7.862;2024-01-30T05:12:55;101952.50;;;3.76;94.00
84049;BME280;74136;51.684;7.862;2024-01-30T05:15:21;101949.41;;;3.71;93.55
84049;BME280;74136;51.684;7.862;2024-01-30T05:17:48;101952.28;;;3.70;92.18
84049;BME280;74136;51.684;7.862;2024-01-30T05:20:14;101948.25;;;3.74;92.86
84049;BME280;74136;51.684;7.862;2024-01-30T05:22:40;101944.34;;;3.76;92.63
84049;BME280;74136;51.684;7.862;2024-01-30T05:25:14;101930.53;;;3.70;91.85
84049;BME280;74136;51.684;7.862;2024-01-30T05:27:40;101940.41;;;3.71;92.29
84049;BME280;74136;51.684;7.862;2024-01-30T05:30:07;101949.13;;;3.74;92.24
84049;BME280;74136;51.684;7.862;2024-01-30T05:32:33;101947.25;;;3.75;92.96
84049;BME280;74136;51.684;7.862;2024-01-30T05:34:59;101950.88;;;3.83;92.86
84049;BME280;74136;51.684;7.862;2024-01-30T05:37:26;101943.06;;;3.88;93.20
84049;BME280;74136;51.684;7.862;2024-01-30T05:39:52;101948.19;;;3.91;92.52
84049;BME280;74136;51.684;7.862;2024-01-30T05:42:18;101942.28;;;3.96;92.76
84049;BME280;74136;51.684;7.862;2024-01-30T05:44:44;101943.13;;;3.96;91.96
84049;BME280;74136;51.684;7.862;2024-01-30T05:47:11;101948.91;;;3.93;91.70
84049;BME280;74136;51.684;7.862;2024-01-30T05:49:37;101949.53;;;3.87;91.18
84049;BME280;74136;51.684;7.862;2024-01-30T05:52:06;101958.72;;;3.86;91.32
84049;BME280;74136;51.684;7.862;2024-01-30T05:54:32;101952.03;;;3.81;90.93
84049;BME280;74136;51.684;7.862;2024-01-30T05:56:59;101958.50;;;3.80;91.06
84049;BME280;74136;51.684;7.862;2024-01-30T05:59:25;101958.34;;;3.81;91.33
84049;BME280;74136;51.684;7.862;2024-01-30T06:01:51;101951.72;;;3.84;92.13
84049;BME280;74136;51.684;7.862;2024-01-30T06:04:18;101954.09;;;3.87;91.71
84049;BME280;74136;51.684;7.862;2024-01-30T06:06:44;101950.91;;;3.91;92.11
84049;BME280;74136;51.684;7.862;2024-01-30T06:09:10;101957.69;;;3.87;91.38
84049;BME280;74136;51.684;7.862;2024-01-30T06:11:38;101944.34;;;3.76;90.85
84049;BME280;74136;51.684;7.862;2024-01-30T06:14:05;101949.25;;;3.73;91.04
84049;BME280;74136;51.684;7.862;2024-01-30T06:16:31;101938.09;;;3.58;90.98
84049;BME280;74136;51.684;7.862;2024-01-30T06:18:57;101948.28;;;3.56;90.73
84049;BME280;74136;51.684;7.862;2024-01-30T06:21:23;101951.63;;;3.50;91.04
84049;BME280;74136;51.684;7.862;2024-01-30T06:23:50;101947.28;;;3.39;90.27
84049;BME280;74136;51.684;7.862;2024-01-30T06:26:16;101949.94;;;3.31;90.43
84049;BME280;74136;51.684;7.862;2024-01-30T06:28:42;101943.56;;;3.22;90.62
84049;BME280;74136;51.684;7.862;2024-01-30T06:31:08;101948.47;;;3.19;90.24
84049;BME280;74136;51.684;7.862;2024-01-30T06:33:34;101945.66;;;3.11;90.25
84049;BME280;74136;51.684;7.862;2024-01-30T06:36:01;101942.16;;;3.01;90.23
84049;BME280;74136;51.684;7.862;2024-01-30T06:38:27;101940.06;;;2.95;89.76
84049;BME280;74136;51.684;7.862;2024-01-30T06:40:53;101943.63;;;2.95;90.27
84049;BME280;74136;51.684;7.862;2024-01-30T06:43:19;101945.19;;;2.98;91.27
84049;BME280;74136;51.684;7.862;2024-01-30T06:45:45;101940.63;;;2.98;91.28
84049;BME280;74136;51.684;7.862;2024-01-30T06:48:12;101945.28;;;3.06;91.70
84049;BME280;74136;51.684;7.862;2024-01-30T06:50:38;101949.84;;;3.05;91.25
84049;BME280;74136;51.684;7.862;2024-01-30T06:53:04;101943.88;;;3.02;90.98
84049;BME280;74136;51.684;7.862;2024-01-30T06:55:30;101954.50;;;2.95;91.53
84049;BME280;74136;51.684;7.862;2024-01-30T06:57:57;101953.97;;;2.91;91.01
84049;BME280;74136;51.684;7.862;2024-01-30T07:00:23;101958.69;;;2.89;91.00
84049;BME280;74136;51.684;7.862;2024-01-30T07:02:49;101958.84;;;2.88;91.52
84049;BME280;74136;51.684;7.862;2024-01-30T07:05:18;101953.72;;;2.85;91.35
84049;BME280;74136;51.684;7.862;2024-01-30T07:07:44;101947.44;;;2.84;91.42
84049;BME280;74136;51.684;7.862;2024-01-30T07:10:10;101958.31;;;2.84;92.42
84049;BME280;74136;51.684;7.862;2024-01-30T07:12:38;101950.44;;;2.81;91.82
84049;BME280;74136;51.684;7.862;2024-01-30T07:15:05;101954.88;;;2.82;91.47
84049;BME280;74136;51.684;7.862;2024-01-30T07:17:34;101946.72;;;2.82;91.55
84049;BME280;74136;51.684;7.862;2024-01-30T07:20:01;101947.44;;;2.84;91.81
84049;BME280;74136;51.684;7.862;2024-01-30T07:22:29;101943.56;;;2.87;92.11
84049;BME280;74136;51.684;7.862;2024-01-30T07:24:57;101952.66;;;2.96;92.41
84049;BME280;74136;51.684;7.862;2024-01-30T07:27:23;101941.63;;;2.97;91.62
84049;BME280;74136;51.684;7.862;2024-01-30T07:29:49;101947.59;;;3.01;91.84
84049;BME280;74136;51.684;7.862;2024-01-30T07:32:15;101946.44;;;3.03;92.18
84049;BME280;74136;51.684;7.862;2024-01-30T07:34:41;101946.00;;;3.08;91.90
84049;BME280;74136;51.684;7.862;2024-01-30T07:37:08;101939.69;;;3.07;92.51
84049;BME280;74136;51.684;7.862;2024-01-30T07:39:34;101939.69;;;3.07;91.40
84049;BME280;74136;51.684;7.862;2024-01-30T07:42:00;101944.78;;;3.10;91.50
84049;BME280;74136;51.684;7.862;2024-01-30T07:44:27;101933.63;;;3.13;92.02
84049;BME280;74136;51.684;7.862;2024-01-30T07:46:53;101941.31;;;3.18;91.92
84049;BME280;74136;51.684;7.862;2024-01-30T07:49:19;101938.66;;;3.26;92.22
84049;BME280;74136;51.684;7.862;2024-01-30T07:51:45;101943.47;;;3.32;91.71
84049;BME280;74136;51.684;7.862;2024-01-30T07:54:12;101944.03;;;3.36;91.70
84049;BME280;74136;51.684;7.862;2024-01-30T07:56:39;101957.16;;;3.40;91.29
84049;BME280;74136;51.684;7.862;2024-01-30T07:59:05;101952.25;;;3.44;91.33
84049;BME280;74136;51.684;7.862;2024-01-30T08:01:31;101958.25;;;3.47;91.69
84049;BME280;74136;51.684;7.862;2024-01-30T08:03:57;101965.78;;;3.53;91.99
84049;BME280;74136;51.684;7.862;2024-01-30T08:06:23;101961.88;;;3.56;91.77
84049;BME280;74136;51.684;7.862;2024-01-30T08:08:49;101969.59;;;3.60;91.88
84049;BME280;74136;51.684;7.862;2024-01-30T08:11:20;101965.34;;;3.66;91.75
84049;BME280;74136;51.684;7.862;2024-01-30T08:13:52;101972.97;;;3.80;92.30
84049;BME280;74136;51.684;7.862;2024-01-30T08:16:18;101966.56;;;3.89;92.70
84049;BME280;74136;51.684;7.862;2024-01-30T08:18:45;101977.03;;;4.02;92.48
84049;BME280;74136;51.684;7.862;2024-01-30T08:21:11;101971.13;;;4.07;91.72
84049;BME280;74136;51.684;7.862;2024-01-30T08:23:40;101972.72;;;4.17;91.61
84049;BME280;74136;51.684;7.862;2024-01-30T08:26:07;101964.03;;;4.22;91.21
84049;BME280;74136;51.684;7.862;2024-01-30T08:28:33;101968.50;;;4.31;90.80
84049;BME280;74136;51.684;7.862;2024-01-30T08:31:01;101960.88;;;4.34;90.07
84049;BME280;74136;51.684;7.862;2024-01-30T08:33:27;101965.34;;;4.44;90.36
84049;BME280;74136;51.684;7.862;2024-01-30T08:35:54;101966.75;;;4.56;90.22
84049;BME280;74136;51.684;7.862;2024-01-30T08:38:21;101955.56;;;4.67;90.19
84049;BME280;74136;51.684;7.862;2024-01-30T08:40:47;101956.13;;;4.79;89.93
84049;BME280;74136;51.684;7.862;2024-01-30T08:43:13;101958.69;;;4.88;89.57
84049;BME280;74136;51.684;7.862;2024-01-30T08:45:40;101954.97;;;4.97;88.85
84049;BME280;74136;51.684;7.862;2024-01-30T08:48:07;101961.16;;;5.07;89.18
84049;BME280;74136;51.684;7.862;2024-01-30T08:50:34;101959.28;;;5.16;89.40
84049;BME280;74136;51.684;7.862;2024-01-30T08:53:01;101955.19;;;5.20;88.44
84049;BME280;74136;51.684;7.862;2024-01-30T08:55:27;101961.69;;;5.35;88.43
84049;BME280;74136;51.684;7.862;2024-01-30T08:57:53;101954.34;;;5.44;88.00
84049;BME280;74136;51.684;7.862;2024-01-30T09:00:21;101958.97;;;5.60;88.32
84049;BME280;74136;51.684;7.862;2024-01-30T09:02:47;101962.72;;;5.75;88.69
84049;BME280;74136;51.684;7.862;2024-01-30T09:05:13;101958.78;;;5.85;87.54
84049;BME280;74136;51.684;7.862;2024-01-30T09:07:40;101956.56;;;5.97;87.36
84049;BME280;74136;51.684;7.862;2024-01-30T09:10:07;101967.31;;;6.15;87.27
84049;BME280;74136;51.684;7.862;2024-01-30T09:12:33;101966.94;;;6.26;86.54
84049;BME280;74136;51.684;7.862;2024-01-30T09:15:00;101966.56;;;6.37;86.64
84049;BME280;74136;51.684;7.862;2024-01-30T09:17:26;101962.78;;;6.46;86.87
84049;BME280;74136;51.684;7.862;2024-01-30T09:19:52;101970.59;;;6.57;86.69
84049;BME280;74136;51.684;7.862;2024-01-30T09:22:19;101970.56;;;6.66;86.38
84049;BME280;74136;51.684;7.862;2024-01-30T09:24:45;101978.75;;;6.74;86.15
84049;BME280;74136;51.684;7.862;2024-01-30T09:27:11;101969.66;;;6.81;86.62
84049;BME280;74136;51.684;7.862;2024-01-30T09:29:37;101974.91;;;6.91;86.95
84049;BME280;74136;51.684;7.862;2024-01-30T09:32:04;101975.19;;;7.04;86.19
84049;BME280;74136;51.684;7.862;2024-01-30T09:34:32;101980.91;;;7.17;86.21
84049;BME280;74136;51.684;7.862;2024-01-30T09:36:59;101980.44;;;7.37;85.76
84049;BME280;74136;51.684;7.862;2024-01-30T09:39:26;101975.41;;;7.48;85.32
84049;BME280;74136;51.684;7.862;2024-01-30T09:42:14;101981.72;;;7.72;85.47
84049;BME280;74136;51.684;7.862;2024-01-30T09:44:44;101986.53;;;7.84;85.21
84049;BME280;74136;51.684;7.862;2024-01-30T09:47:10;101977.06;;;7.95;85.54
84049;BME280;74136;51.684;7.862;2024-01-30T09:49:36;101987.19;;;8.09;85.13
84049;BME280;74136;51.684;7.862;2024-01-30T09:52:05;101983.31;;;8.18;84.44
84049;BME280;74136;51.684;7.862;2024-01-30T09:54:31;101985.81;;;8.28;84.79
84049;BME280;74136;51.684;7.862;2024-01-30T09:56:58;101987.63;;;8.35;84.64
84049;BME280;74136;51.684;7.862;2024-01-30T09:59:24;101989.53;;;8.35;83.66
84049;BME280;74136;51.684;7.862;2024-01-30T10:01:50;101987.28;;;8.38;85.07
84049;BME280;74136;51.684;7.862;2024-01-30T10:04:17;101996.25;;;8.47;84.16
84049;BME280;74136;51.684;7.862;2024-01-30T10:06:44;102002.13;;;8.59;84.38
84049;BME280;74136;51.684;7.862;2024-01-30T10:09:10;101994.63;;;8.67;84.47
84049;BME280;74136;51.684;7.862;2024-01-30T10:11:36;101984.88;;;8.80;84.55
84049;BME280;74136;51.684;7.862;2024-01-30T10:14:03;101980.13;;;8.88;83.22
84049;BME280;74136;51.684;7.862;2024-01-30T10:16:29;101990.69;;;9.06;82.17
84049;BME280;74136;51.684;7.862;2024-01-30T10:18:55;101979.88;;;9.19;81.99
84049;BME280;74136;51.684;7.862;2024-01-30T10:21:22;101980.88;;;9.33;81.40
84049;BME280;74136;51.684;7.862;2024-01-30T10:23:49;101978.66;;;9.43;81.74
84049;BME280;74136;51.684;7.862;2024-01-30T10:26:17;101975.00;;;9.57;80.25
84049;BME280;74136;51.684;7.862;2024-01-30T10:28:44;101970.69;;;9.69;81.33
84049;BME280;74136;51.684;7.862;2024-01-30T10:31:10;101965.63;;;9.73;79.46
84049;BME280;74136;51.684;7.862;2024-01-30T10:33:36;101968.06;;;9.82;79.89
84049;BME280;74136;51.684;7.862;2024-01-30T10:36:04;101968.09;;;9.89;78.89
84049;BME280;74136;51.684;7.862;2024-01-30T10:38:32;101954.81;;;9.93;78.75
84049;BME280;74136;51.684;7.862;2024-01-30T10:40:59;101970.13;;;10.02;78.29
84049;BME280;74136;51.684;7.862;2024-01-30T10:43:34;101964.28;;;10.11;77.43
84049;BME280;74136;51.684;7.862;2024-01-30T10:48:42;101970.13;;;10.30;78.23
84049;BME280;74136;51.684;7.862;2024-01-30T10:51:10;101969.78;;;10.39;77.34
84049;BME280;74136;51.684;7.862;2024-01-30T10:53:38;101953.97;;;10.48;76.38
84049;BME280;74136;51.684;7.862;2024-01-30T10:56:05;101946.78;;;10.53;76.47
84049;BME280;74136;51.684;7.862;2024-01-30T10:58:32;101951.28;;;10.61;75.58
84049;BME280;74136;51.684;7.862;2024-01-30T11:01:00;101955.97;;;10.67;75.79
84049;BME280;74136;51.684;7.862;2024-01-30T11:03:27;101954.28;;;10.66;74.17
84049;BME280;74136;51.684;7.862;2024-01-30T11:05:53;101960.69;;;10.80;75.16
84049;BME280;74136;51.684;7.862;2024-01-30T11:08:26;101952.00;;;10.83;73.89
84049;BME280;74136;51.684;7.862;2024-01-30T11:10:56;101958.16;;;10.85;73.44
84049;BME280;74136;51.684;7.862;2024-01-30T11:13:31;101959.66;;;10.87;73.76
84049;BME280;74136;51.684;7.862;2024-01-30T11:16:04;101961.16;;;10.90;74.08
84049;BME280;74136;51.684;7.862;2024-01-30T11:18:32;101958.88;;;11.00;73.39
84049;BME280;74136;51.684;7.862;2024-01-30T11:20:59;101953.19;;;11.08;73.05
84049;BME280;74136;51.684;7.862;2024-01-30T11:23:28;101965.69;;;11.17;73.08
84049;BME280;74136;51.684;7.862;2024-01-30T11:25:56;101951.31;;;11.15;72.75
84049;BME280;74136;51.684;7.862;2024-01-30T11:28:23;101956.84;;;11.28;72.59
84049;BME280;74136;51.684;7.862;2024-01-30T11:30:49;101963.63;;;11.39;73.03
84049;BME280;74136;51.684;7.862;2024-01-30T11:33:29;101961.97;;;11.51;72.12
84049;BME280;74136;51.684;7.862;2024-01-30T11:35:59;101963.06;;;11.57;71.80
84049;BME280;74136;51.684;7.862;2024-01-30T11:38:27;101962.41;;;11.61;71.05
84049;BME280;74136;51.684;7.862;2024-01-30T11:40:55;101957.97;;;11.74;70.87
84049;BME280;74136;51.684;7.862;2024-01-30T11:43:22;101953.13;;;11.89;71.11
84049;BME280;74136;51.684;7.862;2024-01-30T11:45:51;101950.19;;;12.03;70.59
84049;BME280;74136;51.684;7.862;2024-01-30T11:48:17;101938.69;;;12.07;70.19
84049;BME280;74136;51.684;7.862;2024-01-30T11:50:44;101948.66;;;12.21;70.25
84049;BME280;74136;51.684;7.862;2024-01-30T11:53:10;101950.34;;;12.28;69.70
84049;BME280;74136;51.684;7.862;2024-01-30T11:55:38;101945.22;;;12.38;69.05
84049;BME280;74136;51.684;7.862;2024-01-30T11:58:05;101945.19;;;12.52;68.60
84049;BME280;74136;51.684;7.862;2024-01-30T12:00:31;101964.53;;;12.52;68.00
84049;BME280;74136;51.684;7.862;2024-01-30T12:02:59;101957.31;;;12.51;68.17
84049;BME280;74136;51.684;7.862;2024-01-30T12:05:27;101951.97;;;12.49;68.19
84049;BME280;74136;51.684;7.862;2024-01-30T12:07:53;101968.78;;;12.41;68.40
84049;BME280;74136;51.684;7.862;2024-01-30T12:10:21;101970.69;;;12.40;68.05
84049;BME280;74136;51.684;7.862;2024-01-30T12:12:49;101966.69;;;12.36;68.39
84049;BME280;74136;51.684;7.862;2024-01-30T12:15:15;101962.84;;;12.37;68.30
84049;BME280;74136;51.684;7.862;2024-01-30T12:17:42;101968.16;;;12.39;68.61
84049;BME280;74136;51.684;7.862;2024-01-30T12:20:10;101966.63;;;12.50;68.89
84049;BME280;74136;51.684;7.862;2024-01-30T12:22:37;101975.56;;;12.58;68.80
84049;BME280;74136;51.684;7.862;2024-01-30T12:25:07;101970.69;;;12.54;68.41
84049;BME280;74136;51.684;7.862;2024-01-30T12:27:34;101973.47;;;12.47;68.57
84049;BME280;74136;51.684;7.862;2024-01-30T12:30:05;101980.69;;;12.42;69.20
84049;BME280;74136;51.684;7.862;2024-01-30T12:32:31;101973.88;;;12.44;69.58
84049;BME280;74136;51.684;7.862;2024-01-30T12:34:57;101978.34;;;12.38;69.46
84049;BME280;74136;51.684;7.862;2024-01-30T12:37:25;101979.41;;;12.37;69.55
84049;BME280;74136;51.684;7.862;2024-01-30T12:39:52;101974.97;;;12.36;69.63
84049;BME280;74136;51.684;7.862;2024-01-30T12:42:20;101975.59;;;12.38;69.78
84049;BME280;74136;51.684;7.862;2024-01-30T12:44:49;101969.25;;;12.31;70.04
84049;BME280;74136;51.684;7.862;2024-01-30T12:47:16;101986.22;;;12.42;70.49
84049;BME280;74136;51.684;7.862;2024-01-30T12:49:45;101989.19;;;12.47;70.65
84049;BME280;74136;51.684;7.862;2024-01-30T12:52:14;101989.78;;;12.55;71.05
84049;BME280;74136;51.684;7.862;2024-01-30T12:54:40;101993.41;;;12.56;70.74
84049;BME280;74136;51.684;7.862;2024-01-30T12:57:07;101992.34;;;12.50;70.70